createdAt,value
2023-12-02T00:02:16.968Z,93815.53
2023-12-02T00:04:43.387Z,93815.28
2023-12-02T00:07:10.221Z,93814.47
2023-12-02T00:09:36.650Z,93811.00
2023-12-02T00:12:03.757Z,93807.78
2023-12-02T00:14:30.202Z,93806.72
2023-12-02T00:16:57.369Z,93808.56
2023-12-02T00:19:23.824Z,93806.97
2023-12-02T00:21:51.180Z,93807.00
2023-12-02T00:24:17.702Z,93809.13
2023-12-02T00:26:44.104Z,93802.16
2023-12-02T00:29:10.516Z,93808.28
2023-12-02T00:31:36.913Z,93811.22
2023-12-02T00:34:03.994Z,93815.50
2023-12-02T00:36:32.445Z,93806.69
2023-12-02T00:38:58.839Z,93808.03
2023-12-02T00:41:25.347Z,93810.72
2023-12-02T00:43:51.724Z,93810.44
2023-12-02T00:46:18.065Z,93818.19
2023-12-02T00:48:44.524Z,93815.50
2023-12-02T00:51:11.613Z,93810.72
2023-12-02T00:53:37.962Z,93810.19
2023-12-02T00:56:05.217Z,93821.38
2023-12-02T00:58:38.465Z,93820.59
2023-12-02T01:01:08.614Z,93824.84
2023-12-02T01:03:35.032Z,93824.31
2023-12-02T01:06:01.524Z,93830.19
2023-12-02T01:08:28.578Z,93833.66
2023-12-02T01:10:54.974Z,93833.38
2023-12-02T01:13:21.339Z,93831.00
2023-12-02T01:15:48.197Z,93840.84
2023-12-02T01:18:14.635Z,93842.19
2023-12-02T01:20:40.982Z,93825.63
2023-12-02T01:23:07.355Z,93831.53
2023-12-02T01:25:34.379Z,93837.13
2023-12-02T01:28:00.735Z,93836.84
2023-12-02T01:30:27.980Z,93836.59
2023-12-02T01:32:54.496Z,93831.78
2023-12-02T01:35:21.131Z,93830.44
2023-12-02T01:37:47.535Z,93819.22
2023-12-02T01:40:14.226Z,93815.75
2023-12-02T01:42:41.214Z,93813.09
2023-12-02T01:45:08.691Z,93812.31
2023-12-02T01:47:35.119Z,93819.50
2023-12-02T01:50:03.338Z,93815.50
2023-12-02T01:52:29.847Z,93820.81
2023-12-02T01:54:56.385Z,93821.91
2023-12-02T01:57:23.311Z,93827.50
2023-12-02T01:59:54.629Z,93813.88
2023-12-02T02:02:21.447Z,93814.44
2023-12-02T02:04:49.015Z,93804.81
2023-12-02T02:07:15.539Z,93811.75
2023-12-02T02:09:46.362Z,93807.47
2023-12-02T02:12:13.062Z,93805.28
2023-12-02T02:14:39.443Z,93805.28
2023-12-02T02:17:06.608Z,93795.69
2023-12-02T02:19:33.300Z,93807.38
2023-12-02T02:22:00.509Z,93800.44
2023-12-02T02:24:26.942Z,93805.25
2023-12-02T02:26:53.371Z,93791.94
2023-12-02T02:29:19.823Z,93809.56
2023-12-02T02:31:46.204Z,93819.09
2023-12-02T02:34:12.933Z,93817.25
2023-12-02T02:36:39.278Z,93814.06
2023-12-02T02:39:07.961Z,93810.84
2023-12-02T02:41:34.815Z,93818.59
2023-12-02T02:44:01.913Z,93824.13
2023-12-02T02:46:28.295Z,93832.44
2023-12-02T02:48:54.719Z,93819.91
2023-12-02T02:51:21.191Z,93825.53
2023-12-02T02:53:47.556Z,93831.38
2023-12-02T02:56:14.579Z,93831.13
2023-12-02T02:58:41.036Z,93838.06
2023-12-02T03:01:07.569Z,93840.97
2023-12-02T03:03:34.295Z,93835.91
2023-12-02T03:06:00.740Z,93833.78
2023-12-02T03:08:27.127Z,93830.56
2023-12-02T03:10:53.712Z,93835.91
2023-12-02T03:13:20.713Z,93830.06
2023-12-02T03:15:47.067Z,93831.41
2023-12-02T03:18:13.542Z,93837.78
2023-12-02T03:20:40.035Z,93838.06
2023-12-02T03:23:06.500Z,93840.69
2023-12-02T03:25:32.848Z,93837.72
2023-12-02T03:27:59.189Z,93844.69
2023-12-02T03:30:26.228Z,93847.91
2023-12-02T03:32:52.696Z,93835.63
2023-12-02T03:35:19.150Z,93840.16
2023-12-02T03:37:46.547Z,93853.25
2023-12-02T03:40:13.688Z,93867.84
2023-12-02T03:42:40.147Z,93860.66
2023-12-02T03:45:07.257Z,93862.19
2023-12-02T03:47:34.503Z,93872.59
2023-12-02T03:50:00.860Z,93870.97
2023-12-02T03:52:27.217Z,93876.81
2023-12-02T03:54:53.523Z,93867.50
2023-12-02T03:57:20.132Z,93849.63
2023-12-02T03:59:46.489Z,93841.41
2023-12-02T04:02:12.813Z,93826.97
2023-12-02T04:04:39.893Z,93826.75
2023-12-02T04:07:06.341Z,93831.03
2023-12-02T04:09:32.838Z,93818.78
2023-12-02T04:11:59.238Z,93816.38
2023-12-02T04:14:25.634Z,93816.69
2023-12-02T04:16:51.957Z,93828.13
2023-12-02T04:19:18.452Z,93838.00
2023-12-02T04:21:46.446Z,93873.69
2023-12-02T04:24:12.853Z,93883.59
2023-12-02T04:26:39.238Z,93903.53
2023-12-02T04:29:05.625Z,93905.41
2023-12-02T04:31:32.569Z,93895.25
2023-12-02T04:33:59.507Z,93904.34
2023-12-02T04:36:25.994Z,93894.91
2023-12-02T04:38:53.059Z,93889.66
2023-12-02T04:41:19.640Z,93874.13
2023-12-02T04:43:46.048Z,93866.69
2023-12-02T04:46:12.427Z,93881.91
2023-12-02T04:48:38.945Z,93872.78
2023-12-02T04:51:05.630Z,93873.59
2023-12-02T04:53:32.001Z,93874.94
2023-12-02T04:55:59.020Z,93869.88
2023-12-02T04:58:25.526Z,93875.47
2023-12-02T05:00:51.955Z,93877.91
2023-12-02T05:03:18.573Z,93893.03
2023-12-02T05:05:45.287Z,93883.69
2023-12-02T05:08:11.881Z,93891.50
2023-12-02T05:10:39.054Z,93890.94
2023-12-02T05:13:07.160Z,93904.22
2023-12-02T05:15:33.558Z,93909.56
2023-12-02T05:17:59.988Z,93908.09
2023-12-02T05:20:26.410Z,93911.81
2023-12-02T05:22:52.756Z,93919.28
2023-12-02T05:25:19.099Z,93931.06
2023-12-02T05:27:45.557Z,93951.50
2023-12-02T05:30:13.588Z,93961.53
2023-12-02T05:32:40.044Z,93955.41
2023-12-02T05:35:09.255Z,93944.19
2023-12-02T05:37:37.079Z,93953.00
2023-12-02T05:40:04.877Z,93943.41
2023-12-02T05:42:31.257Z,93957.25
2023-12-02T05:44:57.706Z,93956.47
2023-12-02T05:47:24.725Z,93951.94
2023-12-02T05:49:51.117Z,93941.78
2023-12-02T05:52:17.516Z,93945.19
2023-12-02T05:54:43.994Z,93940.69
2023-12-02T05:57:11.138Z,93947.06
2023-12-02T05:59:38.863Z,93939.63
2023-12-02T06:02:05.280Z,93934.28
2023-12-02T06:04:32.394Z,93952.75
2023-12-02T06:06:59.545Z,93957.25
2023-12-02T06:09:26.009Z,93957.47
2023-12-02T06:11:52.674Z,93956.91
2023-12-02T06:14:19.330Z,93958.06
2023-12-02T06:16:45.666Z,93965.44
2023-12-02T06:19:12.481Z,93976.41
2023-12-02T06:21:40.326Z,93976.28
2023-12-02T06:24:07.557Z,93979.56
2023-12-02T06:26:34.031Z,93999.19
2023-12-02T06:29:00.402Z,93990.72
2023-12-02T06:31:29.971Z,94001.16
2023-12-02T06:33:56.403Z,94011.22
2023-12-02T06:36:22.915Z,94000.50
2023-12-02T06:38:49.965Z,94002.66
2023-12-02T06:41:16.342Z,94013.63
2023-12-02T06:43:42.705Z,94014.13
2023-12-02T06:46:09.822Z,94033.31
2023-12-02T06:48:36.307Z,94044.50
2023-12-02T06:51:02.752Z,94049.53
2023-12-02T06:53:29.135Z,94050.84
2023-12-02T06:55:56.220Z,94052.69
2023-12-02T06:58:22.657Z,94064.34
2023-12-02T07:00:49.575Z,94070.97
2023-12-02T07:03:16.197Z,94063.72
2023-12-02T07:05:42.640Z,94066.66
2023-12-02T07:08:09.001Z,94072.47
2023-12-02T07:10:35.345Z,94079.63
2023-12-02T07:13:03.076Z,94081.00
2023-12-02T07:15:29.523Z,94085.41
2023-12-02T07:17:55.965Z,94084.59
2023-12-02T07:20:22.452Z,94086.22
2023-12-02T07:22:48.786Z,94086.16
2023-12-02T07:25:15.153Z,94085.84
2023-12-02T07:27:41.697Z,94093.56
2023-12-02T07:32:39.316Z,94095.59
2023-12-02T07:35:07.064Z,94107.13
2023-12-02T07:37:33.476Z,94103.47
2023-12-02T07:39:59.874Z,94101.91
2023-12-02T07:42:26.323Z,94110.91
2023-12-02T07:44:52.697Z,94113.06
2023-12-02T07:47:19.935Z,94111.25
2023-12-02T07:49:46.378Z,94099.81
2023-12-02T07:52:12.852Z,94094.72
2023-12-02T07:54:39.251Z,94096.06
2023-12-02T07:57:05.906Z,94096.34
2023-12-02T07:59:32.212Z,94089.06
2023-12-02T08:01:58.783Z,94102.78
2023-12-02T08:04:26.240Z,94098.19
2023-12-02T08:06:52.660Z,94113.19
2023-12-02T08:09:19.054Z,94115.03
2023-12-02T08:11:45.511Z,94120.84
2023-12-02T08:14:12.072Z,94123.59
2023-12-02T08:16:38.542Z,94121.66
2023-12-02T08:19:04.956Z,94120.38
2023-12-02T08:21:32.079Z,94130.84
2023-12-02T08:23:58.847Z,94126.31
2023-12-02T08:26:25.455Z,94130.69
2023-12-02T08:28:51.874Z,94131.63
2023-12-02T08:31:18.403Z,94139.63
2023-12-02T08:33:44.906Z,94140.69
2023-12-02T08:36:11.740Z,94133.97
2023-12-02T08:38:38.768Z,94141.28
2023-12-02T08:41:05.584Z,94140.53
2023-12-02T08:43:32.156Z,94135.13
2023-12-02T08:45:58.662Z,94140.44
2023-12-02T08:48:25.186Z,94142.22
2023-12-02T08:50:51.705Z,94146.59
2023-12-02T08:53:18.134Z,94152.31
2023-12-02T08:55:45.314Z,94147.47
2023-12-02T08:58:11.775Z,94149.81
2023-12-02T09:00:38.273Z,94156.38
2023-12-02T09:03:05.097Z,94161.97
2023-12-02T09:05:31.840Z,94162.75
2023-12-02T09:08:01.722Z,94174.41
2023-12-02T09:10:28.217Z,94179.75
2023-12-02T09:12:55.461Z,94187.19
2023-12-02T09:15:39.838Z,94184.03
2023-12-02T09:18:13.801Z,94187.19
2023-12-02T09:20:46.279Z,94193.38
2023-12-02T09:23:14.202Z,94198.38
2023-12-02T09:25:42.295Z,94192.91
2023-12-02T09:28:27.595Z,94188.22
2023-12-02T09:31:08.091Z,94172.34
2023-12-02T09:33:37.018Z,94180.00
2023-12-02T09:36:04.488Z,94186.19
2023-12-02T09:38:33.028Z,94174.91
2023-12-02T09:41:18.543Z,94173.75
2023-12-02T09:43:59.446Z,94181.09
2023-12-02T09:46:32.255Z,94190.88
2023-12-02T09:49:48.159Z,94200.34
2023-12-02T09:52:32.913Z,94209.03
2023-12-02T09:55:10.120Z,94209.41
2023-12-02T09:57:46.692Z,94227.00
2023-12-02T10:00:22.404Z,94235.44
2023-12-02T10:03:19.367Z,94246.34
2023-12-02T10:05:58.953Z,94260.63
2023-12-02T10:08:35.137Z,94277.91
2023-12-02T10:11:05.343Z,94296.91
2023-12-02T10:13:43.838Z,94302.66
2023-12-02T10:16:15.277Z,94324.25
2023-12-02T10:18:48.688Z,94317.41
2023-12-02T10:21:19.168Z,94318.34
2023-12-02T10:23:55.625Z,94314.09
2023-12-02T10:26:26.349Z,94314.84
2023-12-02T10:29:08.264Z,94301.75
2023-12-02T10:31:49.308Z,94292.50
2023-12-02T10:34:23.231Z,94286.75
2023-12-02T10:36:53.593Z,94288.78
2023-12-02T10:39:35.883Z,94282.31
2023-12-02T10:42:04.033Z,94274.66
2023-12-02T10:44:32.452Z,94281.72
2023-12-02T10:47:00.554Z,94290.25
2023-12-02T10:49:29.040Z,94295.84
2023-12-02T10:54:33.140Z,94286.16
2023-12-02T10:57:06.406Z,94289.56
2023-12-02T10:59:36.149Z,94288.78
2023-12-02T11:02:23.970Z,94288.59
2023-12-02T11:04:57.359Z,94284.91
2023-12-02T11:07:26.714Z,94287.69
2023-12-02T11:10:00.416Z,94286.84
2023-12-02T11:12:33.103Z,94292.56
2023-12-02T11:15:16.595Z,94299.53
2023-12-02T11:17:54.013Z,94294.88
2023-12-02T11:20:27.108Z,94308.00
2023-12-02T11:23:21.517Z,94316.22
2023-12-02T11:26:06.997Z,94324.47
2023-12-02T11:28:41.337Z,94343.44
2023-12-02T11:31:20.278Z,94340.72
2023-12-02T11:34:00.942Z,94357.50
2023-12-02T11:36:37.047Z,94358.41
2023-12-02T11:39:10.630Z,94365.63
2023-12-02T11:41:45.933Z,94373.69
2023-12-02T11:44:17.886Z,94382.63
2023-12-02T11:47:02.604Z,94389.25
2023-12-02T11:49:37.025Z,94387.97
2023-12-02T11:52:13.012Z,94403.63
2023-12-02T11:54:58.264Z,94403.13
2023-12-02T11:57:33.714Z,94409.69
2023-12-02T12:00:10.137Z,94413.44
2023-12-02T12:03:04.224Z,94422.75
2023-12-02T12:05:41.573Z,94431.06
2023-12-02T12:08:13.456Z,94440.91
2023-12-02T12:10:41.249Z,94446.44
2023-12-02T12:13:11.181Z,94455.47
2023-12-02T12:15:38.620Z,94466.13
2023-12-02T12:18:05.384Z,94465.69
2023-12-02T12:20:32.309Z,94472.72
2023-12-02T12:23:01.606Z,94468.69
2023-12-02T12:25:31.042Z,94481.19
2023-12-02T12:28:02.495Z,94489.09
2023-12-02T12:30:41.765Z,94503.50
2023-12-02T12:33:10.930Z,94496.72
2023-12-02T12:35:37.584Z,94506.09
2023-12-02T12:38:04.804Z,94505.63
2023-12-02T12:40:35.852Z,94499.75
2023-12-02T12:43:02.275Z,94504.50
2023-12-02T12:45:28.855Z,94517.53
2023-12-02T12:47:56.581Z,94517.00
2023-12-02T12:50:23.644Z,94517.78
2023-12-02T12:52:51.727Z,94524.28
2023-12-02T12:55:21.315Z,94527.38
2023-12-02T12:57:53.894Z,94527.13
2023-12-02T13:00:20.869Z,94538.28
2023-12-02T13:03:02.184Z,94536.66
2023-12-02T13:05:35.326Z,94540.88
2023-12-02T13:08:07.369Z,94539.28
2023-12-02T13:10:35.814Z,94556.81
2023-12-02T13:13:03.279Z,94566.63
2023-12-02T13:15:31.833Z,94565.38
2023-12-02T13:17:58.526Z,94564.22
2023-12-02T13:20:28.647Z,94574.31
2023-12-02T13:23:02.048Z,94571.38
2023-12-02T13:25:29.878Z,94584.81
2023-12-02T13:27:58.255Z,94577.94
2023-12-02T13:30:25.433Z,94584.41
2023-12-02T13:32:54.933Z,94589.13
2023-12-02T13:35:27.530Z,94591.78
2023-12-02T13:38:07.539Z,94602.34
2023-12-02T13:40:38.896Z,94598.19
2023-12-02T13:43:11.207Z,94595.28
2023-12-02T13:45:39.993Z,94610.16
2023-12-02T13:48:18.720Z,94618.16
2023-12-02T13:50:54.421Z,94620.91
2023-12-02T13:53:33.614Z,94624.53
2023-12-02T13:56:19.987Z,94634.00
2023-12-02T13:59:02.575Z,94639.81
2023-12-02T14:01:32.621Z,94654.72
2023-12-02T14:04:07.020Z,94650.00
2023-12-02T14:06:58.315Z,94657.75
2023-12-02T14:09:27.766Z,94661.69
2023-12-02T14:12:09.984Z,94672.19
2023-12-02T14:14:56.672Z,94680.84
2023-12-02T14:17:41.162Z,94685.72
2023-12-02T14:20:30.734Z,94702.72
2023-12-02T14:23:20.642Z,94702.81
2023-12-02T14:26:05.923Z,94705.69
2023-12-02T14:28:46.281Z,94710.78
2023-12-02T14:31:54.028Z,94712.06
2023-12-02T14:34:49.305Z,94721.19
2023-12-02T14:37:42.788Z,94723.63
2023-12-02T14:40:25.349Z,94735.56
2023-12-02T14:43:00.800Z,94738.22
2023-12-02T14:45:31.896Z,94740.53
2023-12-02T14:48:05.713Z,94744.81
2023-12-02T14:50:32.370Z,94756.09
2023-12-02T14:52:59.275Z,94757.44
2023-12-02T14:55:28.606Z,94764.53
2023-12-02T14:58:19.184Z,94774.34
2023-12-02T15:00:50.223Z,94786.16
2023-12-02T15:03:17.867Z,94791.91
2023-12-02T15:05:46.806Z,94801.88
2023-12-02T15:08:13.925Z,94802.31
2023-12-02T15:10:42.459Z,94808.44
2023-12-02T15:13:11.237Z,94817.22
2023-12-02T15:15:38.714Z,94823.47
2023-12-02T15:18:07.320Z,94834.00
2023-12-02T15:20:35.490Z,94840.06
2023-12-02T15:23:37.033Z,94846.72
2023-12-02T15:26:04.304Z,94846.50
2023-12-02T15:28:48.549Z,94859.53
2023-12-02T15:31:29.717Z,94857.22
2023-12-02T15:33:56.802Z,94859.38
2023-12-02T15:36:25.471Z,94869.44
2023-12-02T15:38:53.268Z,94868.81
2023-12-02T15:41:21.145Z,94873.72
2023-12-02T15:43:47.943Z,94884.84
2023-12-02T15:46:14.514Z,94885.53
2023-12-02T15:48:41.815Z,94886.16
2023-12-02T15:51:09.269Z,94891.47
2023-12-02T15:53:36.730Z,94896.81
2023-12-02T15:56:04.115Z,94900.88
2023-12-02T15:58:32.426Z,94913.84
2023-12-02T16:01:00.384Z,94923.00
2023-12-02T16:03:27.039Z,94922.91
2023-12-02T16:05:54.488Z,94931.81
2023-12-02T16:08:22.704Z,94936.09
2023-12-02T16:10:59.557Z,94928.84
2023-12-02T16:13:28.096Z,94943.34
2023-12-02T16:15:54.702Z,94950.19
2023-12-02T16:18:21.943Z,94956.28
2023-12-02T16:20:48.691Z,94958.03
2023-12-02T16:23:15.189Z,94964.63
2023-12-02T16:25:41.601Z,94976.63
2023-12-02T16:28:11.062Z,94977.94
2023-12-02T16:30:37.497Z,94991.47
2023-12-02T16:33:04.122Z,94997.88
2023-12-02T16:35:30.656Z,95008.50
2023-12-02T16:37:57.041Z,95011.38
2023-12-02T16:40:24.304Z,95023.50
2023-12-02T16:42:50.731Z,95021.22
2023-12-02T16:45:21.422Z,95034.75
2023-12-02T16:47:51.332Z,95044.47
2023-12-02T16:50:24.054Z,95048.34
2023-12-02T16:52:52.958Z,95056.72
2023-12-02T16:55:19.653Z,95067.31
2023-12-02T16:57:49.146Z,95066.09
2023-12-02T17:00:19.010Z,95069.97
2023-12-02T17:02:45.771Z,95059.19
2023-12-02T17:05:58.760Z,95070.88
2023-12-02T17:08:26.807Z,95080.59
2023-12-02T17:10:59.338Z,95090.25
2023-12-02T17:13:33.831Z,95095.56
2023-12-02T17:16:00.893Z,95101.22
2023-12-02T17:19:04.932Z,95109.38
2023-12-02T17:21:47.961Z,95105.50
2023-12-02T17:24:19.073Z,95107.75
2023-12-02T17:26:45.909Z,95122.09
2023-12-02T17:29:14.283Z,95122.47
2023-12-02T17:31:41.561Z,95135.31
2023-12-02T17:34:08.032Z,95130.47
2023-12-02T17:36:35.754Z,95136.53
2023-12-02T17:39:02.432Z,95143.88
2023-12-02T17:41:29.059Z,95142.22
2023-12-02T17:43:56.082Z,95150.25
2023-12-02T17:46:24.511Z,95164.09
2023-12-02T17:48:51.600Z,95174.91
2023-12-02T17:51:18.057Z,95172.03
2023-12-02T17:53:44.421Z,95180.00
2023-12-02T17:56:11.742Z,95182.25
2023-12-02T17:58:38.242Z,95174.06
2023-12-02T18:01:05.276Z,95181.19
2023-12-02T18:03:31.691Z,95191.63
2023-12-02T18:05:58.762Z,95196.34
2023-12-02T18:08:25.376Z,95193.66
2023-12-02T18:10:51.850Z,95203.25
2023-12-02T18:13:18.235Z,95193.47
2023-12-02T18:15:44.900Z,95206.75
2023-12-02T18:18:12.645Z,95211.84
2023-12-02T18:20:42.589Z,95213.06
2023-12-02T18:23:09.648Z,95216.94
2023-12-02T18:25:36.011Z,95223.88
2023-12-02T18:28:02.573Z,95226.91
2023-12-02T18:30:29.644Z,95237.97
2023-12-02T18:32:56.150Z,95245.97
2023-12-02T18:35:22.520Z,95242.28
2023-12-02T18:37:48.910Z,95252.06
2023-12-02T18:40:16.214Z,95247.34
2023-12-02T18:42:42.709Z,95256.13
2023-12-02T18:45:09.759Z,95256.78
2023-12-02T18:47:36.589Z,95260.03
2023-12-02T18:50:03.086Z,95265.16
2023-12-02T18:52:29.490Z,95274.72
2023-12-02T18:54:55.826Z,95280.22
2023-12-02T18:57:24.506Z,95282.88
2023-12-02T18:59:50.982Z,95284.91
2023-12-02T19:02:17.420Z,95289.16
2023-12-02T19:04:43.885Z,95289.78
2023-12-02T19:07:12.567Z,95293.88
2023-12-02T19:09:39.091Z,95293.28
2023-12-02T19:12:06.391Z,95305.53
2023-12-02T19:14:33.446Z,95307.78
2023-12-02T19:16:59.850Z,95308.59
2023-12-02T19:19:26.789Z,95306.13
2023-12-02T19:21:53.174Z,95310.41
2023-12-02T19:24:19.705Z,95320.22
2023-12-02T19:26:46.127Z,95315.50
2023-12-02T19:29:14.981Z,95314.50
2023-12-02T19:31:42.509Z,95324.72
2023-12-02T19:34:09.701Z,95333.72
2023-12-02T19:36:38.251Z,95333.06
2023-12-02T19:39:04.964Z,95342.88
2023-12-02T19:41:31.384Z,95341.44
2023-12-02T19:43:57.787Z,95348.59
2023-12-02T19:46:24.178Z,95349.41
2023-12-02T19:48:51.298Z,95359.38
2023-12-02T19:51:17.786Z,95363.06
2023-12-02T19:53:44.147Z,95370.44
2023-12-02T19:56:14.006Z,95365.94
2023-12-02T19:58:41.886Z,95378.59
2023-12-02T20:01:10.489Z,95379.03
2023-12-02T20:03:37.027Z,95387.97
2023-12-02T20:06:04.600Z,95398.22
2023-12-02T20:08:31.654Z,95408.41
2023-12-02T20:10:58.034Z,95402.69
2023-12-02T20:13:24.440Z,95393.31
2023-12-02T20:15:50.798Z,95404.13
2023-12-02T20:18:17.290Z,95404.34
2023-12-02T20:20:45.138Z,95414.13
2023-12-02T20:23:15.560Z,95414.94
2023-12-02T20:25:41.995Z,95424.75
2023-12-02T20:28:08.426Z,95434.53
2023-12-02T20:30:35.033Z,95433.09
2023-12-02T20:33:01.450Z,95434.97
2023-12-02T20:35:27.820Z,95441.25
2023-12-02T20:37:54.208Z,95446.34
2023-12-02T20:40:21.440Z,95451.47
2023-12-02T20:42:47.970Z,95452.72
2023-12-02T20:45:14.621Z,95461.06
2023-12-02T20:47:41.111Z,95456.78
2023-12-02T20:50:08.191Z,95460.00
2023-12-02T20:52:34.649Z,95467.78
2023-12-02T20:55:01.144Z,95473.28
2023-12-02T20:57:28.307Z,95467.13
2023-12-02T20:59:54.733Z,95473.13
2023-12-02T21:02:21.830Z,95467.38
2023-12-02T21:04:48.248Z,95472.06
2023-12-02T21:07:14.656Z,95471.25
2023-12-02T21:09:41.187Z,95478.00
2023-12-02T21:12:08.099Z,95483.28
2023-12-02T21:14:35.155Z,95483.88
2023-12-02T21:17:01.526Z,95486.94
2023-12-02T21:19:28.003Z,95480.56
2023-12-02T21:21:54.406Z,95485.28
2023-12-02T21:24:20.892Z,95483.88
2023-12-02T21:26:47.274Z,95483.69
2023-12-02T21:29:13.679Z,95489.75
2023-12-02T21:31:40.944Z,95493.97
2023-12-02T21:34:09.135Z,95498.66
2023-12-02T21:36:35.744Z,95512.72
2023-12-02T21:39:02.163Z,95507.72
2023-12-02T21:41:28.554Z,95510.13
2023-12-02T21:43:57.552Z,95515.06
2023-12-02T21:46:27.237Z,95536.66
2023-12-02T21:48:57.984Z,95533.78
2023-12-02T21:51:27.519Z,95535.03
2023-12-02T21:53:57.976Z,95538.28
2023-12-02T21:56:24.384Z,95537.25
2023-12-02T21:59:06.168Z,95548.69
2023-12-02T22:01:35.670Z,95545.03
2023-12-02T22:04:03.856Z,95543.38
2023-12-02T22:06:43.068Z,95546.44
2023-12-02T22:09:09.923Z,95552.94
2023-12-02T22:11:39.508Z,95557.19
2023-12-02T22:14:16.975Z,95560.44
2023-12-02T22:16:43.317Z,95567.34
2023-12-02T22:19:10.709Z,95572.38
2023-12-02T22:21:37.233Z,95575.09
2023-12-02T22:24:04.335Z,95586.03
2023-12-02T22:26:32.454Z,95585.47
2023-12-02T22:29:03.693Z,95592.84
2023-12-02T22:31:30.382Z,95595.47
2023-12-02T22:33:56.916Z,95604.84
2023-12-02T22:36:24.110Z,95610.28
2023-12-02T22:38:51.028Z,95613.53
2023-12-02T22:41:17.479Z,95619.81
2023-12-02T22:43:46.047Z,95625.19
2023-12-02T22:46:14.241Z,95634.91
2023-12-02T22:48:43.566Z,95634.72
2023-12-02T22:51:15.298Z,95638.44
2023-12-02T22:53:42.663Z,95642.47
2023-12-02T22:56:10.045Z,95639.56
2023-12-02T22:58:38.763Z,95631.28
2023-12-02T23:01:08.415Z,95627.00
2023-12-02T23:03:38.439Z,95627.44
2023-12-02T23:06:05.357Z,95632.63
2023-12-02T23:08:32.722Z,95632.38
2023-12-02T23:10:59.898Z,95642.63
2023-12-02T23:13:51.149Z,95634.91
2023-12-02T23:16:36.590Z,95642.78
2023-12-02T23:19:04.996Z,95640.56
2023-12-02T23:21:31.577Z,95649.56
2023-12-02T23:23:59.113Z,95649.56
2023-12-02T23:26:27.526Z,95655.00
2023-12-02T23:28:55.577Z,95655.50
2023-12-02T23:31:22.866Z,95656.84
2023-12-02T23:33:50.346Z,95654.00
2023-12-02T23:36:16.856Z,95656.59
2023-12-02T23:38:43.306Z,95657.59
2023-12-02T23:41:12.139Z,95662.22
2023-12-02T23:43:41.331Z,95660.25
2023-12-02T23:46:07.759Z,95655.84
2023-12-02T23:48:34.333Z,95661.31
2023-12-02T23:51:01.067Z,95656.91
2023-12-02T23:53:27.548Z,95659.66
2023-12-02T23:55:54.100Z,95667.88
2023-12-02T23:58:20.757Z,95662.66
